Portada
METAR-TAF:

METAR-TAF

Aeroports :

Charlotte County Airport

Punta Gorda, Florida, Estats Units d'Amèrica

latitud: 26-55-04N, longitud: 081-59-37W, altitud: 7 m

Observació

L'informe es va fer fa 43 minuts, a les 21:53 UTC
Vent 13 kt del Nord-Oest
Temperatura 18°C
Humitat 42%
Pressió 1023 hPa
Visibilitat: 16.1 km
Cel clar

METAR: KPGD 282153Z 32013KT 10SM CLR 18/05 A3022 RMK AO2 SLP232 T01830050

Hora: 17:36 (22:36 UTC)

Pronòstic

L'informe es va fer fa 5 hores i 16 minuts, a les 17:20 UTC
Pronòstic vàlid del 28 a les 18 UTC al 29 a les 18 UTC
Vent 12 kt del Nord-Oest
Visibilitat: 10 km
Escasses núvols a una alçada de 4500 ft
A partir de les 29 a les 0100 UTC
Vent 5 kt del Nord-Oest
Visibilitat: 10 km
Núvols disperses a una alçada de 5000 ft
A partir de les 29 a les 1400 UTC
Vent 12 kt del Nord amb ràfegues de 20 kt
Visibilitat: 10 km
Cel clar

TAF: KPGD 281720Z 2818/2918 32012KT P6SM FEW045 FM290100 31005KT P6SM SCT050 FM291400 35012G20KT P6SM SKC

Observacions i pronòstics meteorològics de més de 4000 aeroports (METAR i TAF).

Les estacions disponibles són els punts grocs i vermells al mapa.

Posi el ratolí al punt desitjat per veure el nom de l'estació.

Feu clic per veure les observacions i els pronòstics meteorològics.

Per canviar el mapa: feu clic els botons verds amb una creu de color negre per apropar; al botó verd amb un guió per allunyar la imatge; o en les fletxes verdes per a mapes adjacents.


METAR-TAF: